Austin, Nevada
Current Conditions -  °F | °C
As of 10:00 AM on Friday 21 Nov 2014 (Local Time) from K05U Reporting Station
Clear Clear  
Wind Chill: 41°   Ceiling: Unl
Heat Index: 41°   Visibility: 10mi
Dew Point: 19°   Wind: 0mph
Humidity: 42%   Direction: NA
Pressure: 30.07"   Gusts: NA
Location:  39.49°N, 117.07°W
Report Text: K05U 211800Z AUTO 00000KT 10SM CLR 05/M07 A3007 RMK AO1
Loading
Personal Weather Stations






























Interactive Weather Map New forecast layout! Learn more

10-Day Weather Forecast

Advertisements
Track Severe Weather on mobile